Time,TemperatureF,DewpointF,PressureIn,WindDirection,WindDirectionDegrees,WindSpeedMPH,WindSpeedGustMPH,Humidity,HourlyPrecipIn,Conditions,Clouds,dailyrainin,SoftwareType,DateUTC
2013-02-05 00:05:00,25.3,15.0,29.94,West,281,0.0,0.0,65,0.00,,,0.00,weatherlink.com 1.10,2013-02-05 05:05:00,
2013-02-05 00:20:00,25.4,15.0,29.94,West,281,0.0,0.0,64,0.00,,,0.00,weatherlink.com 1.10,2013-02-05 05:20:00,
2013-02-05 00:35:00,25.6,16.0,29.93,West,281,0.0,0.0,67,0.00,,,0.00,weatherlink.com 1.10,2013-02-05 05:35:00,
2013-02-05 00:50:00,25.7,15.9,29.93,West,281,0.0,4.0,66,0.00,,,0.00,Wunderground v.1.15,2013-02-05 05:50:00,
2013-02-05 01:00:00,25.7,15.9,29.93,West,281,0.0,0.0,66,0.00,,,0.00,Wunderground v.1.15,2013-02-05 06:00:00,
2013-02-05 01:05:00,25.8,16.0,29.93,West,281,0.0,0.0,67,0.00,,,0.00,weatherlink.com 1.10,2013-02-05 06:05:00,
2013-02-05 01:20:00,25.9,16.8,29.93,West,281,0.0,0.0,68,0.00,,,0.00,Wunderground v.1.15,2013-02-05 06:20:00,
2013-02-05 01:30:00,25.8,16.3,29.93,West,281,0.0,0.0,67,0.00,,,0.00,Wunderground v.1.15,2013-02-05 06:30:00,
2013-02-05 01:36:00,25.8,16.0,29.93,West,281,0.0,0.0,66,0.00,,,0.00,weatherlink.com 1.10,2013-02-05 06:36:00,
2013-02-05 01:50:00,25.8,16.3,29.92,West,281,0.0,0.0,67,0.00,,,0.00,Wunderground v.1.15,2013-02-05 06:50:00,
2013-02-05 02:00:00,25.9,16.8,29.92,West,281,0.0,0.0,68,0.00,,,0.00,Wunderground v.1.15,2013-02-05 07:00:00,
2013-02-05 02:05:00,25.8,16.0,29.93,West,281,0.0,0.0,67,0.00,,,0.00,weatherlink.com 1.10,2013-02-05 07:05:00,
2013-02-05 02:20:00,25.8,16.7,29.92,West,281,0.0,0.0,68,0.00,,,0.00,Wunderground v.1.15,2013-02-05 07:20:00,
2013-02-05 02:30:00,25.7,17.3,29.92,West,281,0.0,0.0,70,0.00,,,0.00,Wunderground v.1.15,2013-02-05 07:30:00,
2013-02-05 02:36:00,25.7,18.0,29.92,West,281,0.0,0.0,71,0.00,,,0.00,weatherlink.com 1.10,2013-02-05 07:36:00,
2013-02-05 02:50:00,25.6,17.8,29.92,West,281,0.0,0.0,72,0.00,,,0.00,Wunderground v.1.15,2013-02-05 07:50:00,
2013-02-05 03:00:00,25.6,18.8,29.92,West,281,0.0,0.0,75,0.00,,,0.00,Wunderground v.1.15,2013-02-05 08:00:00,
2013-02-05 03:05:00,25.6,19.0,29.92,West,281,0.0,0.0,75,0.00,,,0.00,weatherlink.com 1.10,2013-02-05 08:05:00,
2013-02-05 03:20:00,25.4,18.9,29.92,West,281,0.0,0.0,76,0.00,,,0.00,Wunderground v.1.15,2013-02-05 08:20:00,
2013-02-05 03:30:00,25.3,19.1,29.92,West,281,0.0,0.0,77,0.00,,,0.00,Wunderground v.1.15,2013-02-05 08:30:00,
2013-02-05 03:36:00,25.2,19.0,29.92,West,281,0.0,0.0,78,0.00,,,0.00,weatherlink.com 1.10,2013-02-05 08:36:00,
2013-02-05 03:50:00,25.1,19.5,29.92,West,281,0.0,0.0,79,0.00,,,0.00,Wunderground v.1.15,2013-02-05 08:50:00,
2013-02-05 04:00:00,25.0,19.7,29.90,West,281,0.0,0.0,80,0.00,,,0.00,Wunderground v.1.15,2013-02-05 09:00:00,
2013-02-05 04:06:00,24.9,20.0,29.90,West,281,0.0,1.0,81,0.00,,,0.00,weatherlink.com 1.10,2013-02-05 09:06:00,
2013-02-05 04:20:00,24.7,19.4,29.91,West,281,0.0,0.0,80,0.00,,,0.00,Wunderground v.1.15,2013-02-05 09:20:00,
2013-02-05 04:30:00,24.5,19.5,29.91,West,281,0.0,0.0,81,0.00,,,0.00,Wunderground v.1.15,2013-02-05 09:30:00,
2013-02-05 04:36:00,24.5,19.0,29.91,West,281,0.0,1.0,81,0.00,,,0.00,weatherlink.com 1.10,2013-02-05 09:36:00,
2013-02-05 04:50:00,24.5,19.8,29.91,West,281,0.0,0.0,82,0.00,,,0.00,Wunderground v.1.15,2013-02-05 09:50:00,
2013-02-05 05:00:00,24.5,19.8,29.92,West,281,0.0,0.0,82,0.00,,,0.00,Wunderground v.1.15,2013-02-05 10:00:00,
2013-02-05 05:06:00,24.4,19.0,29.91,NW,321,2.0,2.0,81,0.00,,,0.00,weatherlink.com 1.10,2013-02-05 10:06:00,
2013-02-05 05:20:00,24.4,20.0,29.91,NW,321,0.0,2.0,83,0.00,,,0.00,Wunderground v.1.15,2013-02-05 10:20:00,
2013-02-05 05:30:00,24.4,20.0,29.92,NNE,13,1.0,1.0,83,0.00,,,0.00,Wunderground v.1.15,2013-02-05 10:30:00,
2013-02-05 05:36:00,24.4,20.0,29.92,NNE,13,2.0,3.0,84,0.00,,,0.00,weatherlink.com 1.10,2013-02-05 10:36:00,
2013-02-05 05:50:00,24.3,20.4,29.92,NNE,13,0.0,0.0,85,0.00,,,0.00,Wunderground v.1.15,2013-02-05 10:50:00,
2013-02-05 06:00:00,24.2,20.9,29.92,NNE,13,0.0,0.0,87,0.00,,,0.00,Wunderground v.1.15,2013-02-05 11:00:00,
2013-02-05 06:06:00,24.1,21.0,29.91,NNE,32,2.0,3.0,87,0.00,,,0.00,weatherlink.com 1.10,2013-02-05 11:06:00,
2013-02-05 06:20:00,23.9,20.9,29.92,NNE,32,0.0,0.0,88,0.00,,,0.00,Wunderground v.1.15,2013-02-05 11:20:00,
2013-02-05 06:30:00,23.9,21.1,29.92,NNE,32,0.0,0.0,89,0.00,,,0.00,Wunderground v.1.15,2013-02-05 11:30:00,
2013-02-05 06:36:00,23.9,21.0,29.93,NNE,32,0.0,2.0,89,0.00,,,0.00,weatherlink.com 1.10,2013-02-05 11:36:00,
2013-02-05 06:50:00,24.0,21.2,29.93,NNE,32,0.0,2.0,89,0.00,,,0.00,Wunderground v.1.15,2013-02-05 11:50:00,
2013-02-05 07:00:00,24.0,21.5,29.93,NNE,33,0.0,0.0,90,0.00,,,0.00,Wunderground v.1.15,2013-02-05 12:00:00,
2013-02-05 07:06:00,24.1,22.0,29.93,NNE,33,0.0,2.0,90,0.00,,,0.00,weatherlink.com 1.10,2013-02-05 12:06:00,
2013-02-05 07:20:00,24.1,21.3,29.93,NE,34,1.0,1.0,89,0.00,,,0.00,Wunderground v.1.15,2013-02-05 12:20:00,
2013-02-05 07:30:00,24.2,21.4,29.93,NE,34,0.0,0.0,89,0.00,,,0.00,Wunderground v.1.15,2013-02-05 12:30:00,
2013-02-05 07:36:00,24.2,22.0,29.94,NE,35,0.0,3.0,89,0.00,,,0.00,weatherlink.com 1.10,2013-02-05 12:36:00,
2013-02-05 07:50:00,24.3,21.8,29.94,NE,35,1.0,3.0,90,0.00,,,0.00,Wunderground v.1.15,2013-02-05 12:50:00,
2013-02-05 08:07:00,24.4,22.0,29.95,NE,35,0.0,4.0,90,0.00,,,0.00,weatherlink.com 1.10,2013-02-05 13:07:00,
2013-02-05 08:20:00,24.5,22.0,29.95,NE,35,1.0,2.0,90,0.00,,,0.00,Wunderground v.1.15,2013-02-05 13:20:00,
2013-02-05 08:30:00,24.7,22.2,29.95,NE,36,1.0,1.0,90,0.00,,,0.00,Wunderground v.1.15,2013-02-05 13:30:00,
2013-02-05 08:38:00,24.8,22.0,29.95,NE,38,0.0,4.0,90,0.00,,,0.00,weatherlink.com 1.10,2013-02-05 13:38:00,
2013-02-05 08:50:00,24.9,22.4,29.95,NE,38,1.0,2.0,90,0.00,,,0.00,Wunderground v.1.15,2013-02-05 13:50:00,
2013-02-05 09:01:00,25.1,22.6,29.95,NE,38,1.0,2.0,90,0.00,,,0.00,Wunderground v.1.15,2013-02-05 14:01:00,
2013-02-05 09:08:00,25.2,23.0,29.95,NNE,30,1.0,4.0,90,0.00,,,0.00,weatherlink.com 1.10,2013-02-05 14:08:00,
2013-02-05 09:20:00,25.5,23.0,29.95,NNE,30,0.0,3.0,90,0.00,,,0.00,Wunderground v.1.15,2013-02-05 14:20:00,
2013-02-05 09:30:00,25.4,22.6,29.95,NNE,27,1.0,1.0,89,0.00,,,0.00,Wunderground v.1.15,2013-02-05 14:30:00,
2013-02-05 09:37:00,25.4,23.0,29.96,NE,42,2.0,5.0,89,0.00,,,0.00,weatherlink.com 1.10,2013-02-05 14:37:00,
2013-02-05 09:50:00,25.6,22.8,29.96,NE,34,2.0,2.0,89,0.00,,,0.00,Wunderground v.1.15,2013-02-05 14:50:00,
2013-02-05 10:00:00,25.8,22.7,29.96,NE,37,2.0,2.0,88,0.00,,,0.00,Wunderground v.1.15,2013-02-05 15:00:00,
2013-02-05 10:08:00,25.8,23.0,29.96,NE,35,4.0,6.0,87,0.00,,,0.00,weatherlink.com 1.10,2013-02-05 15:08:00,
2013-02-05 10:20:00,26.0,22.7,29.97,NNE,26,2.0,2.0,87,0.00,,,0.00,Wunderground v.1.15,2013-02-05 15:20:00,
2013-02-05 10:30:00,26.0,22.7,29.97,NE,34,1.0,2.0,87,0.00,,,0.00,Wunderground v.1.15,2013-02-05 15:30:00,
2013-02-05 10:38:00,26.1,23.0,29.97,NNE,19,4.0,5.0,87,0.00,,,0.00,weatherlink.com 1.10,2013-02-05 15:38:00,
2013-02-05 10:50:00,26.2,22.9,29.97,NE,47,1.0,2.0,87,0.00,,,0.00,Wunderground v.1.15,2013-02-05 15:50:00,
2013-02-05 11:01:00,26.2,22.9,29.96,NE,40,0.0,0.0,87,0.00,,,0.00,Wunderground v.1.15,2013-02-05 16:01:00,
2013-02-05 11:08:00,26.3,23.0,29.96,NE,40,2.0,3.0,87,0.00,,,0.00,weatherlink.com 1.10,2013-02-05 16:08:00,
2013-02-05 11:20:00,26.2,22.6,29.97,NE,36,1.0,1.0,86,0.00,,,0.00,Wunderground v.1.15,2013-02-05 16:20:00,
2013-02-05 11:30:00,26.2,22.9,29.96,NE,38,1.0,1.0,87,0.00,,,0.00,Wunderground v.1.15,2013-02-05 16:30:00,
2013-02-05 11:38:00,26.1,23.0,29.95,NE,44,3.0,7.0,86,0.00,,,0.00,weatherlink.com 1.10,2013-02-05 16:38:00,
2013-02-05 11:50:00,26.2,22.9,29.94,NNE,33,2.0,2.0,87,0.00,,,0.00,Wunderground v.1.15,2013-02-05 16:50:00,
2013-02-05 12:00:00,26.3,23.0,29.95,ESE,123,1.0,2.0,87,0.00,,,0.00,Wunderground v.1.15,2013-02-05 17:00:00,
2013-02-05 12:08:00,26.4,23.0,29.94,ESE,103,1.0,4.0,86,0.00,,,0.00,weatherlink.com 1.10,2013-02-05 17:08:00,
2013-02-05 12:20:00,26.6,23.0,29.93,East,94,0.0,0.0,86,0.00,,,0.00,Wunderground v.1.15,2013-02-05 17:20:00,
2013-02-05 12:30:00,26.8,23.2,29.93,East,94,0.0,0.0,86,0.00,,,0.00,Wunderground v.1.15,2013-02-05 17:30:00,
2013-02-05 12:39:00,26.9,23.0,29.94,East,90,0.0,3.0,86,0.00,,,0.00,weatherlink.com 1.10,2013-02-05 17:39:00,
2013-02-05 12:50:00,26.9,23.3,29.94,ENE,74,0.0,0.0,86,0.00,,,0.00,Wunderground v.1.15,2013-02-05 17:50:00,
2013-02-05 13:00:00,26.9,23.3,29.94,East,86,0.0,2.0,86,0.00,,,0.00,Wunderground v.1.15,2013-02-05 18:00:00,
2013-02-05 13:10:00,27.0,23.0,29.94,East,86,0.0,2.0,86,0.00,,,0.00,weatherlink.com 1.10,2013-02-05 18:10:00,
2013-02-05 13:20:00,27.1,23.5,29.93,East,79,0.0,0.0,86,0.00,,,0.00,Wunderground v.1.15,2013-02-05 18:20:00,
2013-02-05 13:30:00,27.1,23.5,29.92,East,82,0.0,0.0,86,0.00,,,0.00,Wunderground v.1.15,2013-02-05 18:30:00,
2013-02-05 13:39:00,27.1,24.0,29.92,NNE,32,0.0,4.0,86,0.00,,,0.00,weatherlink.com 1.10,2013-02-05 18:39:00,
2013-02-05 13:50:00,27.4,23.8,29.92,NNE,32,1.0,2.0,86,0.00,,,0.00,Wunderground v.1.15,2013-02-05 18:50:00,
2013-02-05 14:00:00,27.4,23.5,29.91,NNE,30,1.0,1.0,85,0.00,,,0.00,Wunderground v.1.15,2013-02-05 19:00:00,
2013-02-05 14:09:00,27.5,24.0,29.91,NNE,30,0.0,3.0,85,0.00,,,0.00,weatherlink.com 1.10,2013-02-05 19:09:00,
2013-02-05 14:20:00,27.7,23.8,29.90,NNE,28,1.0,2.0,85,0.00,,,0.00,Wunderground v.1.15,2013-02-05 19:20:00,
2013-02-05 14:30:00,27.7,23.5,29.90,NE,49,1.0,1.0,84,0.00,,,0.00,Wunderground v.1.15,2013-02-05 19:30:00,
2013-02-05 14:39:00,27.8,24.0,29.90,East,82,0.0,3.0,84,0.00,,,0.00,weatherlink.com 1.10,2013-02-05 19:39:00,
2013-02-05 14:50:00,27.9,23.7,29.90,East,82,0.0,1.0,84,0.00,,,0.00,Wunderground v.1.15,2013-02-05 19:50:00,
2013-02-05 14:55:00,27.9,24.0,29.90,East,82,0.0,2.0,84,0.00,,,0.00,weatherlink.com 1.10,2013-02-05 19:55:00,
2013-02-05 15:00:00,28.0,23.8,29.90,East,82,0.0,0.0,84,0.00,,,0.00,Wunderground v.1.15,2013-02-05 20:00:00,
2013-02-05 15:09:00,28.1,24.0,29.90,East,82,0.0,1.0,85,0.00,,,0.00,weatherlink.com 1.10,2013-02-05 20:09:00,
2013-02-05 15:20:00,28.3,24.4,29.91,East,82,0.0,0.0,85,0.00,,,0.00,Wunderground v.1.15,2013-02-05 20:20:00,
2013-02-05 15:25:00,28.3,24.0,29.91,East,82,0.0,1.0,85,0.00,,,0.00,weatherlink.com 1.10,2013-02-05 20:25:00,
2013-02-05 15:40:00,28.5,24.6,29.91,East,82,0.0,0.0,85,0.00,,,0.00,Wunderground v.1.15,2013-02-05 20:40:00,
2013-02-05 15:50:00,28.5,24.3,29.91,East,82,0.0,0.0,84,0.00,,,0.00,Wunderground v.1.15,2013-02-05 20:50:00,
2013-02-05 15:55:00,28.5,24.0,29.91,East,82,0.0,1.0,84,0.00,,,0.00,weatherlink.com 1.10,2013-02-05 20:55:00,
2013-02-05 16:10:00,28.5,24.6,29.90,East,82,0.0,0.0,85,0.00,,,0.00,Wunderground v.1.15,2013-02-05 21:10:00,
2013-02-05 16:20:00,28.5,24.6,29.90,East,82,0.0,0.0,85,0.00,,,0.00,Wunderground v.1.15,2013-02-05 21:20:00,
2013-02-05 16:26:00,28.4,25.0,29.90,East,82,0.0,3.0,85,0.00,,,0.00,weatherlink.com 1.10,2013-02-05 21:26:00,
2013-02-05 16:40:00,28.4,24.7,29.90,East,82,0.0,0.0,86,0.00,,,0.00,Wunderground v.1.15,2013-02-05 21:40:00,
2013-02-05 16:50:00,28.4,24.7,29.90,East,82,0.0,0.0,86,0.00,,,0.00,Wunderground v.1.15,2013-02-05 21:50:00,
2013-02-05 16:55:00,28.4,25.0,29.90,East,82,0.0,2.0,86,0.00,,,0.00,weatherlink.com 1.10,2013-02-05 21:55:00,
2013-02-05 17:10:00,28.3,24.9,29.89,East,82,0.0,0.0,87,0.00,,,0.00,Wunderground v.1.15,2013-02-05 22:10:00,
2013-02-05 17:20:00,28.3,24.9,29.89,East,82,0.0,1.0,87,0.00,,,0.00,Wunderground v.1.15,2013-02-05 22:20:00,
2013-02-05 17:26:00,28.2,25.0,29.89,East,82,0.0,2.0,88,0.00,,,0.00,weatherlink.com 1.10,2013-02-05 22:26:00,
2013-02-05 17:40:00,28.2,25.1,29.89,East,82,0.0,2.0,88,0.00,,,0.00,Wunderground v.1.15,2013-02-05 22:40:00,
2013-02-05 17:50:00,28.1,25.0,29.89,East,85,1.0,1.0,88,0.00,,,0.00,Wunderground v.1.15,2013-02-05 22:50:00,
2013-02-05 17:56:00,28.0,25.0,29.90,East,85,0.0,5.0,88,0.00,,,0.00,weatherlink.com 1.10,2013-02-05 22:56:00,
2013-02-05 18:10:00,28.0,24.9,29.90,East,85,0.0,0.0,88,0.00,,,0.00,Wunderground v.1.15,2013-02-05 23:10:00,
2013-02-05 18:20:00,28.0,25.2,29.90,East,85,0.0,0.0,89,0.00,,,0.00,Wunderground v.1.15,2013-02-05 23:20:00,
2013-02-05 18:27:00,27.9,25.0,29.91,East,85,0.0,2.0,89,0.00,,,0.00,weatherlink.com 1.10,2013-02-05 23:27:00,
2013-02-05 18:40:00,27.9,25.1,29.91,East,85,0.0,0.0,89,0.00,,,0.00,Wunderground v.1.15,2013-02-05 23:40:00,
2013-02-05 18:50:00,27.9,25.1,29.90,East,85,0.0,0.0,89,0.00,,,0.00,Wunderground v.1.15,2013-02-05 23:50:00,
2013-02-05 18:57:00,27.9,25.0,29.91,East,85,0.0,2.0,90,0.00,,,0.00,weatherlink.com 1.10,2013-02-05 23:57:00,
2013-02-05 19:10:00,27.7,25.2,29.91,East,85,0.0,0.0,90,0.00,,,0.00,Wunderground v.1.15,2013-02-06 00:10:00,
2013-02-05 19:20:00,27.7,25.2,29.91,East,85,0.0,0.0,90,0.00,,,0.00,Wunderground v.1.15,2013-02-06 00:20:00,
2013-02-05 19:27:00,27.7,26.0,29.91,East,85,0.0,1.0,91,0.00,,,0.00,weatherlink.com 1.10,2013-02-06 00:27:00,
2013-02-05 19:40:00,27.8,25.5,29.91,East,85,0.0,0.0,91,0.00,,,0.00,Wunderground v.1.15,2013-02-06 00:40:00,
2013-02-05 19:50:00,27.8,25.5,29.90,East,85,0.0,0.0,91,0.00,,,0.00,Wunderground v.1.15,2013-02-06 00:50:00,
2013-02-05 19:57:00,27.8,26.0,29.91,East,85,0.0,1.0,91,0.00,,,0.00,weatherlink.com 1.10,2013-02-06 00:57:00,
2013-02-05 20:10:00,27.7,25.4,29.90,East,85,0.0,0.0,91,0.00,,,0.00,Wunderground v.1.15,2013-02-06 01:10:00,
2013-02-05 20:20:00,27.7,25.7,29.90,East,85,0.0,0.0,92,0.00,,,0.00,Wunderground v.1.15,2013-02-06 01:20:00,
2013-02-05 20:28:00,27.6,26.0,29.90,East,85,0.0,0.0,92,0.00,,,0.00,weatherlink.com 1.10,2013-02-06 01:28:00,
2013-02-05 20:40:00,27.6,25.6,29.90,East,85,0.0,0.0,92,0.00,,,0.00,Wunderground v.1.15,2013-02-06 01:40:00,
2013-02-05 20:50:00,27.6,25.6,29.90,East,85,0.0,0.0,92,0.00,,,0.00,Wunderground v.1.15,2013-02-06 01:50:00,
2013-02-05 20:58:00,27.6,26.0,29.90,East,85,0.0,0.0,92,0.00,,,0.00,weatherlink.com 1.10,2013-02-06 01:58:00,
2013-02-05 21:10:00,27.6,25.6,29.90,East,85,0.0,0.0,92,0.00,,,0.00,Wunderground v.1.15,2013-02-06 02:10:00,
2013-02-05 21:20:00,27.6,25.6,29.90,East,85,0.0,0.0,92,0.00,,,0.00,Wunderground v.1.15,2013-02-06 02:20:00,
2013-02-05 21:27:00,27.6,26.0,29.91,East,85,0.0,0.0,92,0.00,,,0.00,weatherlink.com 1.10,2013-02-06 02:27:00,
2013-02-05 21:40:00,27.7,25.7,29.91,East,85,0.0,0.0,92,0.00,,,0.00,Wunderground v.1.15,2013-02-06 02:40:00,
2013-02-05 21:50:00,27.8,25.8,29.91,East,85,0.0,0.0,92,0.00,,,0.00,Wunderground v.1.15,2013-02-06 02:50:00,
2013-02-05 21:58:00,27.8,26.0,29.91,East,85,0.0,0.0,92,0.00,,,0.00,weatherlink.com 1.10,2013-02-06 02:58:00,
2013-02-05 22:10:00,27.9,25.9,29.91,East,85,0.0,0.0,92,0.00,,,0.00,Wunderground v.1.15,2013-02-06 03:10:00,
2013-02-05 22:20:00,28.0,26.2,29.91,East,85,0.0,0.0,93,0.00,,,0.00,Wunderground v.1.15,2013-02-06 03:20:00,
2013-02-05 22:27:00,28.0,26.0,29.91,East,85,0.0,2.0,92,0.00,,,0.00,weatherlink.com 1.10,2013-02-06 03:27:00,
2013-02-05 22:40:00,28.0,26.0,29.91,East,85,0.0,0.0,92,0.00,,,0.00,Wunderground v.1.15,2013-02-06 03:40:00,
2013-02-05 22:50:00,28.0,26.0,29.91,East,85,0.0,0.0,92,0.00,,,0.00,Wunderground v.1.15,2013-02-06 03:50:00,
2013-02-05 22:58:00,28.0,26.0,29.91,East,85,0.0,0.0,93,0.00,,,0.00,weatherlink.com 1.10,2013-02-06 03:58:00,
2013-02-05 23:10:00,27.9,26.1,29.91,East,85,0.0,0.0,93,0.00,,,0.00,Wunderground v.1.15,2013-02-06 04:10:00,
2013-02-05 23:20:00,27.9,26.1,29.91,East,85,0.0,0.0,93,0.00,,,0.00,Wunderground v.1.15,2013-02-06 04:20:00,
2013-02-05 23:28:00,27.8,26.0,29.91,East,85,0.0,0.0,93,0.00,,,0.00,weatherlink.com 1.10,2013-02-06 04:28:00,
2013-02-05 23:40:00,27.9,26.1,29.91,East,85,0.0,0.0,93,0.00,,,0.00,Wunderground v.1.15,2013-02-06 04:40:00,
2013-02-05 23:50:00,27.8,26.0,29.91,East,85,0.0,0.0,93,0.00,,,0.00,Wunderground v.1.15,2013-02-06 04:50:00,
2013-02-05 23:58:00,27.8,26.0,29.91,East,85,0.0,0.0,93,0.00,,,0.00,weatherlink.com 1.10,2013-02-06 04:58:00,